sensor_id;sensor_type;location;lat;lon;timestamp;pressure;altitude;pressure_sealevel;temperature;humidity
41078;BME280;26823;42.662;23.352;2023-04-08T00:02:22;94850.28;;;4.86;66.60
41078;BME280;26823;42.662;23.352;2023-04-08T00:04:47;94829.63;;;4.87;67.53
41078;BME280;26823;42.662;23.352;2023-04-08T00:07:12;94851.41;;;4.90;67.40
41078;BME280;26823;42.662;23.352;2023-04-08T00:09:38;94846.09;;;4.79;66.86
41078;BME280;26823;42.662;23.352;2023-04-08T00:12:03;94849.34;;;4.64;68.30
41078;BME280;26823;42.662;23.352;2023-04-08T00:14:29;94852.53;;;4.78;67.20
41078;BME280;26823;42.662;23.352;2023-04-08T00:16:54;94851.31;;;4.85;67.09
41078;BME280;26823;42.662;23.352;2023-04-08T00:19:20;94832.94;;;4.77;66.94
41078;BME280;26823;42.662;23.352;2023-04-08T00:21:45;94842.38;;;4.80;68.33
41078;BME280;26823;42.662;23.352;2023-04-08T00:24:11;94857.56;;;4.74;69.49
41078;BME280;26823;42.662;23.352;2023-04-08T00:26:37;94858.41;;;4.92;68.50
41078;BME280;26823;42.662;23.352;2023-04-08T00:29:02;94840.03;;;4.83;67.48
41078;BME280;26823;42.662;23.352;2023-04-08T00:31:28;94849.00;;;4.60;69.50
41078;BME280;26823;42.662;23.352;2023-04-08T00:33:53;94821.41;;;4.31;70.05
41078;BME280;26823;42.662;23.352;2023-04-08T00:36:18;94846.91;;;4.33;69.38
41078;BME280;26823;42.662;23.352;2023-04-08T00:38:44;94847.50;;;4.52;69.09
41078;BME280;26823;42.662;23.352;2023-04-08T00:41:09;94841.19;;;4.30;70.14
41078;BME280;26823;42.662;23.352;2023-04-08T00:43:35;94823.94;;;3.97;70.43
41078;BME280;26823;42.662;23.352;2023-04-08T00:46:00;94851.63;;;4.02;70.46
41078;BME280;26823;42.662;23.352;2023-04-08T00:48:26;94856.81;;;4.21;70.24
41078;BME280;26823;42.662;23.352;2023-04-08T00:50:51;94846.22;;;4.26;70.20
41078;BME280;26823;42.662;23.352;2023-04-08T00:53:18;94853.75;;;4.29;70.00
41078;BME280;26823;42.662;23.352;2023-04-08T00:55:44;94853.66;;;4.24;70.11
41078;BME280;26823;42.662;23.352;2023-04-08T00:58:10;94865.50;;;4.40;69.90
41078;BME280;26823;42.662;23.352;2023-04-08T01:00:39;94852.81;;;3.95;71.10
41078;BME280;26823;42.662;23.352;2023-04-08T01:06:14;94871.44;;;4.30;71.04
41078;BME280;26823;42.662;23.352;2023-04-08T01:08:43;94866.28;;;4.40;69.91
41078;BME280;26823;42.662;23.352;2023-04-08T01:11:10;94864.53;;;4.46;69.81
41078;BME280;26823;42.662;23.352;2023-04-08T01:13:39;94868.63;;;4.37;69.24
41078;BME280;26823;42.662;23.352;2023-04-08T01:16:12;94856.53;;;4.34;68.92
41078;BME280;26823;42.662;23.352;2023-04-08T01:18:40;94869.47;;;4.37;70.00
41078;BME280;26823;42.662;23.352;2023-04-08T01:21:07;94857.97;;;4.25;70.60
41078;BME280;26823;42.662;23.352;2023-04-08T01:23:42;94828.56;;;4.13;69.41
41078;BME280;26823;42.662;23.352;2023-04-08T01:26:23;94868.53;;;4.32;70.17
41078;BME280;26823;42.662;23.352;2023-04-08T01:28:58;94867.88;;;4.13;71.23
41078;BME280;26823;42.662;23.352;2023-04-08T01:31:24;94854.41;;;4.07;71.25
41078;BME280;26823;42.662;23.352;2023-04-08T01:33:51;94851.47;;;4.09;70.00
41078;BME280;26823;42.662;23.352;2023-04-08T01:36:19;94866.25;;;4.12;69.68
41078;BME280;26823;42.662;23.352;2023-04-08T01:38:47;94844.84;;;4.12;69.95
41078;BME280;26823;42.662;23.352;2023-04-08T01:41:14;94855.28;;;4.25;69.52
41078;BME280;26823;42.662;23.352;2023-04-08T01:43:42;94867.81;;;4.36;69.03
41078;BME280;26823;42.662;23.352;2023-04-08T01:46:09;94869.22;;;4.39;68.36
41078;BME280;26823;42.662;23.352;2023-04-08T01:48:36;94867.94;;;4.41;67.75
41078;BME280;26823;42.662;23.352;2023-04-08T01:51:04;94868.22;;;4.57;67.99
41078;BME280;26823;42.662;23.352;2023-04-08T01:53:30;94861.97;;;4.39;69.27
41078;BME280;26823;42.662;23.352;2023-04-08T01:56:08;94867.13;;;4.00;70.88
41078;BME280;26823;42.662;23.352;2023-04-08T01:58:38;94879.63;;;4.12;69.68
41078;BME280;26823;42.662;23.352;2023-04-08T02:01:10;94867.78;;;4.19;69.09
41078;BME280;26823;42.662;23.352;2023-04-08T02:03:37;94875.63;;;4.38;68.08
41078;BME280;26823;42.662;23.352;2023-04-08T02:06:02;94865.69;;;4.10;69.11
41078;BME280;26823;42.662;23.352;2023-04-08T02:08:28;94874.28;;;4.23;69.49
41078;BME280;26823;42.662;23.352;2023-04-08T02:10:53;94886.84;;;4.23;68.65
41078;BME280;26823;42.662;23.352;2023-04-08T02:13:19;94892.78;;;4.25;69.69
41078;BME280;26823;42.662;23.352;2023-04-08T02:15:51;94892.88;;;4.30;69.52
41078;BME280;26823;42.662;23.352;2023-04-08T02:18:24;94882.44;;;4.17;70.59
41078;BME280;26823;42.662;23.352;2023-04-08T02:21:02;94880.59;;;3.94;70.69
41078;BME280;26823;42.662;23.352;2023-04-08T02:23:33;94892.47;;;3.98;70.96
41078;BME280;26823;42.662;23.352;2023-04-08T02:26:00;94876.53;;;3.91;70.20
41078;BME280;26823;42.662;23.352;2023-04-08T02:28:27;94886.19;;;3.92;71.04
41078;BME280;26823;42.662;23.352;2023-04-08T02:30:54;94879.22;;;3.91;71.38
41078;BME280;26823;42.662;23.352;2023-04-08T02:33:22;94886.63;;;4.24;69.93
41078;BME280;26823;42.662;23.352;2023-04-08T02:35:49;94882.31;;;4.12;69.75
41078;BME280;26823;42.662;23.352;2023-04-08T02:38:15;94862.81;;;3.99;70.25
41078;BME280;26823;42.662;23.352;2023-04-08T02:40:41;94885.63;;;4.43;69.17
41078;BME280;26823;42.662;23.352;2023-04-08T02:43:06;94872.41;;;4.24;69.91
41078;BME280;26823;42.662;23.352;2023-04-08T02:45:36;94893.16;;;4.17;69.42
41078;BME280;26823;42.662;23.352;2023-04-08T02:48:02;94841.41;;;3.87;69.97
41078;BME280;26823;42.662;23.352;2023-04-08T02:50:28;94884.13;;;4.35;69.69
41078;BME280;26823;42.662;23.352;2023-04-08T02:52:54;94876.09;;;4.35;69.05
41078;BME280;26823;42.662;23.352;2023-04-08T02:55:20;94892.28;;;4.28;69.95
41078;BME280;26823;42.662;23.352;2023-04-08T02:57:46;94884.44;;;3.98;70.91
41078;BME280;26823;42.662;23.352;2023-04-08T03:00:12;94876.09;;;3.94;71.20
41078;BME280;26823;42.662;23.352;2023-04-08T03:02:38;94869.59;;;3.78;71.07
41078;BME280;26823;42.662;23.352;2023-04-08T03:05:03;94889.94;;;3.79;71.33
41078;BME280;26823;42.662;23.352;2023-04-08T03:07:30;94881.91;;;3.67;71.78
41078;BME280;26823;42.662;23.352;2023-04-08T03:09:55;94866.22;;;3.59;71.78
41078;BME280;26823;42.662;23.352;2023-04-08T03:12:21;94896.78;;;3.87;72.17
41078;BME280;26823;42.662;23.352;2023-04-08T03:14:47;94880.75;;;3.87;71.26
41078;BME280;26823;42.662;23.352;2023-04-08T03:17:13;94871.22;;;3.79;71.92
41078;BME280;26823;42.662;23.352;2023-04-08T03:19:38;94868.41;;;3.86;71.01
41078;BME280;26823;42.662;23.352;2023-04-08T03:22:04;94875.84;;;3.96;71.10
41078;BME280;26823;42.662;23.352;2023-04-08T03:24:30;94880.03;;;4.03;70.27
41078;BME280;26823;42.662;23.352;2023-04-08T03:26:55;94870.50;;;3.96;70.63
41078;BME280;26823;42.662;23.352;2023-04-08T03:29:20;94884.78;;;4.13;70.91
41078;BME280;26823;42.662;23.352;2023-04-08T03:31:46;94875.94;;;4.01;71.63
41078;BME280;26823;42.662;23.352;2023-04-08T03:34:11;94895.28;;;4.03;71.22
41078;BME280;26823;42.662;23.352;2023-04-08T03:36:37;94857.47;;;3.87;69.88
41078;BME280;26823;42.662;23.352;2023-04-08T03:39:02;94888.41;;;4.07;70.89
41078;BME280;26823;42.662;23.352;2023-04-08T03:41:28;94893.50;;;4.08;72.14
41078;BME280;26823;42.662;23.352;2023-04-08T03:43:54;94882.47;;;3.93;72.73
41078;BME280;26823;42.662;23.352;2023-04-08T03:46:19;94892.16;;;3.94;73.75
41078;BME280;26823;42.662;23.352;2023-04-08T03:48:44;94894.56;;;3.84;74.51
41078;BME280;26823;42.662;23.352;2023-04-08T03:51:10;94884.72;;;3.61;74.92
41078;BME280;26823;42.662;23.352;2023-04-08T03:53:35;94876.34;;;3.57;75.98
41078;BME280;26823;42.662;23.352;2023-04-08T03:56:01;94878.06;;;3.63;75.02
41078;BME280;26823;42.662;23.352;2023-04-08T03:58:28;94879.34;;;3.61;76.24
41078;BME280;26823;42.662;23.352;2023-04-08T04:00:53;94882.75;;;3.68;76.28
41078;BME280;26823;42.662;23.352;2023-04-08T04:03:18;94879.00;;;3.81;75.50
41078;BME280;26823;42.662;23.352;2023-04-08T04:05:44;94880.06;;;3.91;73.94
41078;BME280;26823;42.662;23.352;2023-04-08T04:08:10;94892.25;;;3.99;73.10
41078;BME280;26823;42.662;23.352;2023-04-08T04:10:35;94869.66;;;3.95;74.01
41078;BME280;26823;42.662;23.352;2023-04-08T04:13:00;94885.84;;;3.88;75.25
41078;BME280;26823;42.662;23.352;2023-04-08T04:15:26;94877.25;;;3.86;75.12
41078;BME280;26823;42.662;23.352;2023-04-08T04:17:51;94871.91;;;3.74;75.38
41078;BME280;26823;42.662;23.352;2023-04-08T04:20:17;94887.28;;;3.79;74.14
41078;BME280;26823;42.662;23.352;2023-04-08T04:22:43;94892.50;;;3.74;73.71
41078;BME280;26823;42.662;23.352;2023-04-08T04:25:08;94896.94;;;3.80;74.91
41078;BME280;26823;42.662;23.352;2023-04-08T04:27:34;94898.91;;;3.73;74.34
41078;BME280;26823;42.662;23.352;2023-04-08T04:30:01;94909.25;;;3.93;74.83
41078;BME280;26823;42.662;23.352;2023-04-08T04:32:27;94904.34;;;4.02;74.14
41078;BME280;26823;42.662;23.352;2023-04-08T04:34:52;94902.84;;;3.94;73.19
41078;BME280;26823;42.662;23.352;2023-04-08T04:37:18;94900.50;;;4.10;72.41
41078;BME280;26823;42.662;23.352;2023-04-08T04:39:43;94903.28;;;4.15;72.69
41078;BME280;26823;42.662;23.352;2023-04-08T04:42:08;94902.84;;;3.94;74.21
41078;BME280;26823;42.662;23.352;2023-04-08T04:44:34;94909.22;;;4.17;73.54
41078;BME280;26823;42.662;23.352;2023-04-08T04:47:00;94895.03;;;4.04;73.23
41078;BME280;26823;42.662;23.352;2023-04-08T04:49:25;94901.47;;;3.91;76.04
41078;BME280;26823;42.662;23.352;2023-04-08T04:51:50;94895.88;;;3.93;75.05
41078;BME280;26823;42.662;23.352;2023-04-08T04:54:16;94903.06;;;4.04;73.95
41078;BME280;26823;42.662;23.352;2023-04-08T04:56:41;94899.41;;;4.22;72.85
41078;BME280;26823;42.662;23.352;2023-04-08T04:59:07;94914.41;;;4.35;70.93
41078;BME280;26823;42.662;23.352;2023-04-08T05:01:33;94923.47;;;4.34;70.59
41078;BME280;26823;42.662;23.352;2023-04-08T05:03:58;94909.31;;;4.22;70.71
41078;BME280;26823;42.662;23.352;2023-04-08T05:06:24;94912.22;;;4.20;70.26
41078;BME280;26823;42.662;23.352;2023-04-08T05:08:51;94911.66;;;4.18;70.43
41078;BME280;26823;42.662;23.352;2023-04-08T05:11:16;94916.31;;;4.11;69.72
41078;BME280;26823;42.662;23.352;2023-04-08T05:13:43;94911.31;;;4.15;70.37
41078;BME280;26823;42.662;23.352;2023-04-08T05:16:08;94912.56;;;4.24;69.82
41078;BME280;26823;42.662;23.352;2023-04-08T05:18:34;94894.25;;;4.33;69.30
41078;BME280;26823;42.662;23.352;2023-04-08T05:21:00;94912.31;;;4.37;69.75
41078;BME280;26823;42.662;23.352;2023-04-08T05:23:26;94882.50;;;4.34;69.34
41078;BME280;26823;42.662;23.352;2023-04-08T05:25:51;94917.16;;;4.81;68.72
41078;BME280;26823;42.662;23.352;2023-04-08T05:28:17;94909.88;;;4.94;68.72
41078;BME280;26823;42.662;23.352;2023-04-08T05:30:50;94910.41;;;4.79;67.64
41078;BME280;26823;42.662;23.352;2023-04-08T05:33:16;94912.56;;;4.65;68.79
41078;BME280;26823;42.662;23.352;2023-04-08T05:35:41;94910.47;;;4.67;68.79
41078;BME280;26823;42.662;23.352;2023-04-08T05:38:07;94913.56;;;4.76;67.90
41078;BME280;26823;42.662;23.352;2023-04-08T05:40:32;94912.34;;;4.66;69.14
41078;BME280;26823;42.662;23.352;2023-04-08T05:42:57;94906.56;;;4.86;67.87
41078;BME280;26823;42.662;23.352;2023-04-08T05:45:23;94921.31;;;5.35;67.36
41078;BME280;26823;42.662;23.352;2023-04-08T05:47:48;94907.72;;;5.07;66.78
41078;BME280;26823;42.662;23.352;2023-04-08T05:50:14;94903.66;;;5.05;67.69
41078;BME280;26823;42.662;23.352;2023-04-08T05:52:43;94883.03;;;5.22;67.47
41078;BME280;26823;42.662;23.352;2023-04-08T05:55:09;94904.97;;;5.19;66.09
41078;BME280;26823;42.662;23.352;2023-04-08T05:57:35;94909.63;;;5.41;65.82
41078;BME280;26823;42.662;23.352;2023-04-08T06:00:01;94901.09;;;5.27;66.40
41078;BME280;26823;42.662;23.352;2023-04-08T06:02:26;94919.69;;;5.34;66.15
41078;BME280;26823;42.662;23.352;2023-04-08T06:04:51;94899.84;;;5.18;66.77
41078;BME280;26823;42.662;23.352;2023-04-08T06:07:23;94910.75;;;5.45;65.71
41078;BME280;26823;42.662;23.352;2023-04-08T06:09:48;94888.19;;;4.95;66.94
41078;BME280;26823;42.662;23.352;2023-04-08T06:12:14;94916.53;;;4.91;67.45
41078;BME280;26823;42.662;23.352;2023-04-08T06:14:39;94902.09;;;5.09;67.77
41078;BME280;26823;42.662;23.352;2023-04-08T06:17:05;94896.03;;;5.14;67.75
41078;BME280;26823;42.662;23.352;2023-04-08T06:19:30;94892.53;;;5.13;67.17
41078;BME280;26823;42.662;23.352;2023-04-08T06:21:56;94911.41;;;5.35;67.08
41078;BME280;26823;42.662;23.352;2023-04-08T06:24:26;94907.19;;;5.57;67.08
41078;BME280;26823;42.662;23.352;2023-04-08T06:26:53;94899.72;;;5.59;67.06
41078;BME280;26823;42.662;23.352;2023-04-08T06:29:22;94903.94;;;5.71;66.37
41078;BME280;26823;42.662;23.352;2023-04-08T06:31:48;94911.56;;;5.63;66.90
41078;BME280;26823;42.662;23.352;2023-04-08T06:34:14;94912.44;;;5.68;66.86
41078;BME280;26823;42.662;23.352;2023-04-08T06:36:39;94911.41;;;5.69;67.20
41078;BME280;26823;42.662;23.352;2023-04-08T06:39:04;94901.53;;;5.92;66.94
41078;BME280;26823;42.662;23.352;2023-04-08T06:41:30;94919.31;;;6.15;67.01
41078;BME280;26823;42.662;23.352;2023-04-08T06:43:55;94895.41;;;6.14;65.97
41078;BME280;26823;42.662;23.352;2023-04-08T06:46:21;94862.47;;;6.01;65.38
41078;BME280;26823;42.662;23.352;2023-04-08T06:48:46;94903.41;;;6.09;66.59
41078;BME280;26823;42.662;23.352;2023-04-08T06:51:11;94911.91;;;6.23;66.74
41078;BME280;26823;42.662;23.352;2023-04-08T06:53:37;94921.34;;;6.25;67.22
41078;BME280;26823;42.662;23.352;2023-04-08T06:56:03;94922.16;;;6.26;67.35
41078;BME280;26823;42.662;23.352;2023-04-08T06:58:28;94900.88;;;6.41;66.69
41078;BME280;26823;42.662;23.352;2023-04-08T07:00:54;94912.66;;;6.40;66.64
41078;BME280;26823;42.662;23.352;2023-04-08T07:03:20;94921.84;;;6.44;66.90
41078;BME280;26823;42.662;23.352;2023-04-08T07:05:46;94915.41;;;6.45;66.40
41078;BME280;26823;42.662;23.352;2023-04-08T07:08:11;94918.81;;;6.58;66.16
41078;BME280;26823;42.662;23.352;2023-04-08T07:10:37;94914.28;;;6.63;66.01
41078;BME280;26823;42.662;23.352;2023-04-08T07:13:02;94913.06;;;6.49;66.50
41078;BME280;26823;42.662;23.352;2023-04-08T07:15:28;94866.53;;;6.04;66.51
41078;BME280;26823;42.662;23.352;2023-04-08T07:17:53;94917.16;;;6.34;67.37
41078;BME280;26823;42.662;23.352;2023-04-08T07:20:21;94918.31;;;6.39;67.09
41078;BME280;26823;42.662;23.352;2023-04-08T07:22:47;94927.28;;;6.72;66.68
41078;BME280;26823;42.662;23.352;2023-04-08T07:25:12;94911.16;;;6.72;66.58
41078;BME280;26823;42.662;23.352;2023-04-08T07:27:38;94894.47;;;6.69;65.96
41078;BME280;26823;42.662;23.352;2023-04-08T07:30:03;94929.03;;;6.83;66.97
41078;BME280;26823;42.662;23.352;2023-04-08T07:32:29;94923.25;;;6.96;65.58
41078;BME280;26823;42.662;23.352;2023-04-08T07:34:54;94929.59;;;7.12;65.64
41078;BME280;26823;42.662;23.352;2023-04-08T07:37:20;94905.44;;;6.90;65.59
41078;BME280;26823;42.662;23.352;2023-04-08T07:39:45;94934.06;;;7.29;65.14
41078;BME280;26823;42.662;23.352;2023-04-08T07:42:10;94914.59;;;7.16;64.28
41078;BME280;26823;42.662;23.352;2023-04-08T07:44:36;94922.28;;;7.67;63.63
41078;BME280;26823;42.662;23.352;2023-04-08T07:47:02;94936.69;;;7.83;62.91
41078;BME280;26823;42.662;23.352;2023-04-08T07:49:28;94900.94;;;7.56;62.60
41078;BME280;26823;42.662;23.352;2023-04-08T07:51:53;94946.63;;;8.21;62.15
41078;BME280;26823;42.662;23.352;2023-04-08T07:54:19;94949.59;;;9.77;57.12
41078;BME280;26823;42.662;23.352;2023-04-08T07:56:44;94948.50;;;8.58;59.28
41078;BME280;26823;42.662;23.352;2023-04-08T07:59:10;94940.25;;;8.95;60.00
41078;BME280;26823;42.662;23.352;2023-04-08T08:01:36;94946.22;;;9.03;58.40
41078;BME280;26823;42.662;23.352;2023-04-08T08:04:02;94954.66;;;10.51;55.80
41078;BME280;26823;42.662;23.352;2023-04-08T08:06:28;94956.06;;;9.66;55.89
41078;BME280;26823;42.662;23.352;2023-04-08T08:08:54;94954.66;;;9.32;57.41
41078;BME280;26823;42.662;23.352;2023-04-08T08:11:20;94947.13;;;9.55;57.68
41078;BME280;26823;42.662;23.352;2023-04-08T08:13:46;94936.88;;;9.83;57.18
41078;BME280;26823;42.662;23.352;2023-04-08T08:16:12;94960.22;;;10.85;54.87
41078;BME280;26823;42.662;23.352;2023-04-08T08:18:38;94943.00;;;10.66;54.17
41078;BME280;26823;42.662;23.352;2023-04-08T08:21:04;94953.06;;;9.41;56.32
41078;BME280;26823;42.662;23.352;2023-04-08T08:23:30;94944.47;;;9.86;55.92
41078;BME280;26823;42.662;23.352;2023-04-08T08:26:06;94965.78;;;9.77;56.54
41078;BME280;26823;42.662;23.352;2023-04-08T08:28:32;94944.59;;;10.72;54.05
41078;BME280;26823;42.662;23.352;2023-04-08T08:30:58;94965.66;;;10.80;53.51
41078;BME280;26823;42.662;23.352;2023-04-08T08:33:24;94963.59;;;10.46;54.19
41078;BME280;26823;42.662;23.352;2023-04-08T08:35:50;94963.91;;;9.83;55.91
41078;BME280;26823;42.662;23.352;2023-04-08T08:38:16;94964.69;;;10.19;54.49
41078;BME280;26823;42.662;23.352;2023-04-08T08:40:42;94964.97;;;9.71;55.47
41078;BME280;26823;42.662;23.352;2023-04-08T08:43:08;94977.03;;;9.17;57.85
41078;BME280;26823;42.662;23.352;2023-04-08T08:45:41;94973.19;;;8.97;58.91
41078;BME280;26823;42.662;23.352;2023-04-08T08:48:07;94964.22;;;8.81;59.31
41078;BME280;26823;42.662;23.352;2023-04-08T08:50:33;94962.94;;;10.85;55.64
41078;BME280;26823;42.662;23.352;2023-04-08T08:53:00;94950.13;;;9.94;55.92
41078;BME280;26823;42.662;23.352;2023-04-08T08:55:29;94969.31;;;10.03;55.68
41078;BME280;26823;42.662;23.352;2023-04-08T08:57:56;94973.06;;;10.23;56.15
41078;BME280;26823;42.662;23.352;2023-04-08T09:00:39;94970.13;;;9.73;56.25
41078;BME280;26823;42.662;23.352;2023-04-08T09:03:26;94969.09;;;8.90;59.36
41078;BME280;26823;42.662;23.352;2023-04-08T09:06:00;94967.69;;;8.67;60.48
41078;BME280;26823;42.662;23.352;2023-04-08T09:08:30;94968.78;;;8.76;60.41
41078;BME280;26823;42.662;23.352;2023-04-08T09:11:10;94974.53;;;8.95;59.79
41078;BME280;26823;42.662;23.352;2023-04-08T09:13:37;94968.22;;;10.20;55.31
41078;BME280;26823;42.662;23.352;2023-04-08T09:16:04;94960.09;;;10.04;56.67
41078;BME280;26823;42.662;23.352;2023-04-08T09:18:32;94960.91;;;10.20;55.54
41078;BME280;26823;42.662;23.352;2023-04-08T09:21:04;94959.84;;;9.80;56.59
41078;BME280;26823;42.662;23.352;2023-04-08T09:23:37;94971.47;;;10.11;55.76
41078;BME280;26823;42.662;23.352;2023-04-08T09:26:23;94955.91;;;8.93;57.86
41078;BME280;26823;42.662;23.352;2023-04-08T09:29:08;94965.22;;;9.39;56.17
41078;BME280;26823;42.662;23.352;2023-04-08T09:31:34;94955.50;;;10.36;54.02
41078;BME280;26823;42.662;23.352;2023-04-08T09:34:09;94958.31;;;10.96;53.33
41078;BME280;26823;42.662;23.352;2023-04-08T09:36:36;94946.06;;;9.82;55.25
41078;BME280;26823;42.662;23.352;2023-04-08T09:39:01;94943.84;;;10.46;54.03
41078;BME280;26823;42.662;23.352;2023-04-08T09:41:28;94960.00;;;10.71;53.54
41078;BME280;26823;42.662;23.352;2023-04-08T09:43:55;94939.06;;;10.98;54.20
41078;BME280;26823;42.662;23.352;2023-04-08T09:52:41;94936.72;;;12.39;47.96
41078;BME280;26823;42.662;23.352;2023-04-08T09:55:11;94945.88;;;13.16;46.90
41078;BME280;26823;42.662;23.352;2023-04-08T09:57:40;94949.59;;;13.64;45.29
41078;BME280;26823;42.662;23.352;2023-04-08T10:00:16;94946.13;;;14.29;42.63
41078;BME280;26823;42.662;23.352;2023-04-08T10:05:26;94905.31;;;12.82;44.95
41078;BME280;26823;42.662;23.352;2023-04-08T10:07:58;94916.59;;;12.16;46.38
41078;BME280;26823;42.662;23.352;2023-04-08T10:10:24;94924.44;;;12.18;46.66
41078;BME280;26823;42.662;23.352;2023-04-08T10:12:51;94921.00;;;11.72;48.06
41078;BME280;26823;42.662;23.352;2023-04-08T10:17:49;94929.47;;;12.83;46.97
41078;BME280;26823;42.662;23.352;2023-04-08T10:22:59;94916.63;;;11.77;50.14
41078;BME280;26823;42.662;23.352;2023-04-08T10:30:46;94921.81;;;11.33;49.04
41078;BME280;26823;42.662;23.352;2023-04-08T10:33:15;94921.22;;;11.47;48.98
41078;BME280;26823;42.662;23.352;2023-04-08T10:35:44;94930.72;;;10.89;51.00
41078;BME280;26823;42.662;23.352;2023-04-08T10:38:15;94914.88;;;10.62;53.09
41078;BME280;26823;42.662;23.352;2023-04-08T10:40:43;94911.44;;;10.30;54.10
41078;BME280;26823;42.662;23.352;2023-04-08T10:43:15;94903.34;;;10.20;54.09
41078;BME280;26823;42.662;23.352;2023-04-08T10:45:42;94919.25;;;10.42;53.62
41078;BME280;26823;42.662;23.352;2023-04-08T10:50:36;94898.75;;;11.41;51.68
41078;BME280;26823;42.662;23.352;2023-04-08T10:53:01;94889.84;;;10.90;50.29
41078;BME280;26823;42.662;23.352;2023-04-08T10:55:27;94898.69;;;11.06;50.91
41078;BME280;26823;42.662;23.352;2023-04-08T10:57:53;94888.03;;;11.25;49.79
41078;BME280;26823;42.662;23.352;2023-04-08T11:00:39;94890.75;;;11.25;50.05
41078;BME280;26823;42.662;23.352;2023-04-08T11:03:07;94876.66;;;11.98;48.56
41078;BME280;26823;42.662;23.352;2023-04-08T11:05:33;94901.13;;;11.87;48.85
41078;BME280;26823;42.662;23.352;2023-04-08T11:07:59;94882.16;;;12.41;47.96
41078;BME280;26823;42.662;23.352;2023-04-08T11:10:25;94881.25;;;12.75;46.30
41078;BME280;26823;42.662;23.352;2023-04-08T11:12:53;94872.38;;;11.86;50.04
41078;BME280;26823;42.662;23.352;2023-04-08T11:15:23;94884.03;;;11.18;49.18
41078;BME280;26823;42.662;23.352;2023-04-08T11:17:49;94872.31;;;12.50;46.53
41078;BME280;26823;42.662;23.352;2023-04-08T11:20:14;94868.22;;;11.99;46.34
41078;BME280;26823;42.662;23.352;2023-04-08T11:22:40;94874.84;;;12.42;44.13
41078;BME280;26823;42.662;23.352;2023-04-08T11:25:07;94874.44;;;12.05;44.74
41078;BME280;26823;42.662;23.352;2023-04-08T11:27:34;94870.38;;;12.02;45.90
41078;BME280;26823;42.662;23.352;2023-04-08T11:30:01;94868.00;;;12.49;44.58
41078;BME280;26823;42.662;23.352;2023-04-08T11:32:27;94864.22;;;11.91;45.40
41078;BME280;26823;42.662;23.352;2023-04-08T11:34:53;94853.06;;;11.98;45.70
41078;BME280;26823;42.662;23.352;2023-04-08T11:37:19;94840.41;;;11.54;48.93
41078;BME280;26823;42.662;23.352;2023-04-08T11:39:45;94848.94;;;11.71;46.34
41078;BME280;26823;42.662;23.352;2023-04-08T11:42:30;94850.88;;;12.00;46.10
41078;BME280;26823;42.662;23.352;2023-04-08T11:44:56;94844.16;;;11.93;44.55
41078;BME280;26823;42.662;23.352;2023-04-08T11:47:29;94842.25;;;12.22;45.09
41078;BME280;26823;42.662;23.352;2023-04-08T11:49:56;94827.56;;;12.23;44.74
41078;BME280;26823;42.662;23.352;2023-04-08T11:52:21;94843.47;;;11.47;45.37
41078;BME280;26823;42.662;23.352;2023-04-08T11:54:47;94794.06;;;10.91;45.47
41078;BME280;26823;42.662;23.352;2023-04-08T11:57:13;94832.56;;;10.78;46.81
41078;BME280;26823;42.662;23.352;2023-04-08T11:59:39;94841.53;;;11.53;45.76
41078;BME280;26823;42.662;23.352;2023-04-08T12:02:05;94826.94;;;10.69;47.85
41078;BME280;26823;42.662;23.352;2023-04-08T12:04:31;94830.75;;;11.08;47.55
41078;BME280;26823;42.662;23.352;2023-04-08T12:07:04;94821.44;;;11.88;45.90
41078;BME280;26823;42.662;23.352;2023-04-08T12:09:29;94827.94;;;11.58;47.08
41078;BME280;26823;42.662;23.352;2023-04-08T12:11:55;94820.19;;;11.12;47.84
41078;BME280;26823;42.662;23.352;2023-04-08T12:14:21;94826.97;;;11.43;47.29
41078;BME280;26823;42.662;23.352;2023-04-08T12:16:49;94804.06;;;11.31;47.26
41078;BME280;26823;42.662;23.352;2023-04-08T12:19:15;94824.56;;;11.71;46.70
41078;BME280;26823;42.662;23.352;2023-04-08T12:21:40;94808.81;;;11.15;47.20
41078;BME280;26823;42.662;23.352;2023-04-08T12:24:05;94821.13;;;11.90;47.27
41078;BME280;26823;42.662;23.352;2023-04-08T12:26:31;94822.75;;;11.27;45.87
41078;BME280;26823;42.662;23.352;2023-04-08T12:28:56;94781.44;;;12.04;44.17
41078;BME280;26823;42.662;23.352;2023-04-08T12:31:22;94797.72;;;12.29;44.66
41078;BME280;26823;42.662;23.352;2023-04-08T12:33:47;94811.69;;;12.79;42.95
41078;BME280;26823;42.662;23.352;2023-04-08T12:36:12;94813.22;;;11.00;47.39
41078;BME280;26823;42.662;23.352;2023-04-08T12:38:38;94800.97;;;10.68;48.01
41078;BME280;26823;42.662;23.352;2023-04-08T12:41:03;94808.44;;;10.87;48.97
41078;BME280;26823;42.662;23.352;2023-04-08T12:43:29;94798.09;;;10.94;47.28
41078;BME280;26823;42.662;23.352;2023-04-08T12:45:56;94796.97;;;11.00;47.65
41078;BME280;26823;42.662;23.352;2023-04-08T12:48:22;94804.78;;;11.71;47.92
41078;BME280;26823;42.662;23.352;2023-04-08T12:50:47;94798.28;;;11.42;47.73
41078;BME280;26823;42.662;23.352;2023-04-08T12:53:13;94794.38;;;11.54;48.11
41078;BME280;26823;42.662;23.352;2023-04-08T12:55:38;94779.44;;;11.27;49.07
41078;BME280;26823;42.662;23.352;2023-04-08T12:58:04;94807.47;;;11.47;48.46
41078;BME280;26823;42.662;23.352;2023-04-08T13:00:30;94743.06;;;10.19;50.86
41078;BME280;26823;42.662;23.352;2023-04-08T13:02:55;94806.25;;;10.39;51.81
41078;BME280;26823;42.662;23.352;2023-04-08T13:05:21;94794.41;;;10.19;52.65
41078;BME280;26823;42.662;23.352;2023-04-08T13:07:46;94803.13;;;10.66;51.24
41078;BME280;26823;42.662;23.352;2023-04-08T13:10:11;94793.00;;;10.37;52.13
41078;BME280;26823;42.662;23.352;2023-04-08T13:12:37;94790.22;;;10.98;50.33
41078;BME280;26823;42.662;23.352;2023-04-08T13:15:05;94801.25;;;11.41;49.82
41078;BME280;26823;42.662;23.352;2023-04-08T13:17:31;94802.66;;;10.59;50.42
41078;BME280;26823;42.662;23.352;2023-04-08T13:19:56;94810.56;;;10.40;51.47
41078;BME280;26823;42.662;23.352;2023-04-08T13:22:22;94809.44;;;10.56;50.55